Aérodrome :
LOGIN :

S'inscrire | Disclaimer

   EN    FR    IT 

 










Légende :    VFR   VFR Marginal   IFR   IFR Intensif   IFR Très Intensif
Visi : 
Plafond : 
>= 8 km
>= 3000ft
5 à 8 km
1000 à 3000 ft
1500m à 5 km
500 à 1000 ft
800 à 1500m
200 à 500 ft
< 800m
< 200 ft
Symboles :   Orages  Brouillard  Fortes neiges  Fortes précipitations  Vent > 20 kt
SIGMETs :   Divers  Orages  Givrage  Turbulence  Onde Orograph.  Cendres Volcan.






- Altitude de l'aérodrome : 3310 ft
- Code IATA : AFY


LTAH - Afyon AB

DERNIER METAR :
  • 271311Z VRB05KT 9999 SCT035 BKN100 20/07 Q1013 RESHRA RMK RWY13 26011KT

METARs EXPIRÉS :
  • 271126Z 24013KT 9000 -SHRA SCT035 BKN100 17/08 Q1014 RMK RWY13 26017KT

TAF TAF LTAH
Valide du 27 à 12h jusqu'au 27 à 21h UTC


271040Z 2712/2721 VRB02KT 9999 SCT040 SCT100
TEMPO 2712/2715 20015KT -TSRA FEW030CB BKN035



MET'MAP, la Météo Aéronautique d'un coup d'oeil ! - Copyright ORBIFLY Décembre 2007 - Disclaimer

ORBIFLY MET'MAP TEAM :

Programmation & Développement : Alexandra Zaïnal
Sur une idée originale de : Baudouin d'Aumeries
Assistance à la programmation : Marc-Olivier Méhu
Soutien technique & logistique : Manuel Goepfert

Contact : metmap@orbifly.com




SOURCES & CREDITS :

   NOAA